Time;durP1;ratioP1;P1;durP2;ratioP2;P2;SDS_P1;SDS_P2;PMS_P1;PMS_P2;Temp;Humidity;BMP_temperature;BMP_pressure;BME280_temperature;BME280_humidity;BME280_pressure;Samples;Min_cycle;Max_cycle;Signal;HPM_P1;HPM_P2
2021/11/12 00:14:49;;;;;;;0.00;0.00;;;;;;;3.94;81.50;99913.41;5113264;28;20039;-79
2021/11/12 00:17:20;;;;;;;0.00;0.00;;;;;;;3.90;80.82;99912.19;5112149;28;20038;-78
2021/11/12 00:19:47;;;;;;;0.00;0.00;;;;;;;3.89;81.80;99910.56;5111145;28;20031;-76
2021/11/12 00:22:12;;;;;;;0.00;0.00;;;;;;;3.88;81.70;99913.44;5113902;28;20031;-87
2021/11/12 00:24:38;;;;;;;0.00;0.00;;;;;;;3.90;81.13;99914.03;5113059;28;20034;-90
2021/11/12 00:27:05;;;;;;;0.00;0.00;;;;;;;3.91;80.84;99919.09;5113299;28;20035;-80
2021/11/12 00:29:39;;;;;;;0.00;0.00;;;;;;;3.89;80.67;99910.56;5102731;28;20035;-86
2021/11/12 00:32:11;;;;;;;0.00;0.00;;;;;;;3.87;80.74;99901.22;5113444;28;20497;-80
2021/11/12 00:34:54;;;;;;;0.00;0.00;;;;;;;3.89;80.51;99899.97;5100301;28;20032;-82
2021/11/12 00:40:29;;;;;;;0.00;0.00;;;;;;;3.90;80.35;99890.22;5114744;27;20032;-81
2021/11/12 00:45:04;;;;;;;0.00;0.00;;;;;;;3.89;80.16;99894.69;5118779;28;19915;-76
2021/11/12 00:50:27;;;;;;;0.00;0.00;;;;;;;3.87;80.06;99893.28;5125562;27;20115;-76
2021/11/12 00:55:22;;;;;;;0.10;0.10;;;;;;;3.76;80.24;99878.88;5112538;28;20040;-78
2021/11/12 00:57:48;;;;;;;0.00;0.00;;;;;;;3.82;80.40;99878.84;5111567;28;20076;-81
2021/11/12 01:00:15;;;;;;;0.00;0.00;;;;;;;3.78;80.16;99877.63;5111761;28;20020;-79
2021/11/12 01:02:40;;;;;;;0.00;0.00;;;;;;;3.84;80.12;99887.41;5090920;28;20023;-81
2021/11/12 01:05:08;;;;;;;0.00;0.00;;;;;;;3.73;80.17;99861.59;5096506;28;20027;-81
2021/11/12 01:07:34;;;;;;;0.00;0.00;;;;;;;3.79;80.13;99873.16;5110994;28;20028;-84
2021/11/12 01:10:01;;;;;;;0.00;0.00;;;;;;;3.76;80.28;99870.94;5111139;28;20023;-80
2021/11/12 01:12:27;;;;;;;0.00;0.00;;;;;;;3.69;80.32;99866.47;5110975;28;20030;-75
2021/11/12 01:14:53;;;;;;;0.00;0.00;;;;;;;3.75;80.24;99871.94;5110974;28;20027;-82
2021/11/12 01:17:19;;;;;;;0.00;0.00;;;;;;;3.79;80.00;99868.69;5110961;28;20050;-84
2021/11/12 01:19:45;;;;;;;0.00;0.00;;;;;;;3.75;80.04;99870.13;5110791;28;20494;-77
2021/11/12 01:22:11;;;;;;;0.00;0.00;;;;;;;3.72;79.93;99861.81;5110582;28;20030;-82
2021/11/12 01:24:38;;;;;;;0.00;0.00;;;;;;;3.67;80.21;99857.97;5110581;28;20513;-84
2021/11/12 01:27:05;;;;;;;0.00;0.00;;;;;;;3.63;80.00;99845.34;5111186;28;20398;-85
2021/11/12 01:29:31;;;;;;;0.00;0.00;;;;;;;3.63;80.05;99854.09;5110763;28;20498;-77
2021/11/12 01:32:13;;;;;;;0.00;0.00;;;;;;;3.61;80.38;99847.41;5110722;28;20474;-76
2021/11/12 01:34:39;;;;;;;0.00;0.00;;;;;;;3.58;80.62;99850.47;5110874;28;20509;-76
2021/11/12 01:37:04;;;;;;;3.45;1.10;;;;;;;3.59;80.01;99852.06;5110513;28;20055;-83
2021/11/12 01:39:30;;;;;;;0.00;0.00;;;;;;;3.56;80.24;99845.38;5110803;28;20034;-77
2021/11/12 01:41:59;;;;;;;0.00;0.00;;;;;;;3.58;80.01;99845.97;5110777;28;20405;-76
2021/11/12 01:44:39;;;;;;;0.00;0.00;;;;;;;3.49;79.91;99837.47;5110015;28;20077;-75
2021/11/12 01:55:40;;;;;;;0.10;0.10;;;;;;;3.43;79.74;99840.97;5111997;28;20024;-78
2021/11/12 01:57:48;;;;;;;0.00;0.00;;;;;;;3.39;79.57;99837.09;5097091;28;20108;-79
2021/11/12 02:00:17;;;;;;;0.00;0.00;;;;;;;3.35;79.57;99836.69;5110558;28;20039;-78
2021/11/12 02:02:43;;;;;;;0.00;0.00;;;;;;;3.30;79.45;99833.06;5097809;28;20034;-77
2021/11/12 02:05:09;;;;;;;0.00;0.00;;;;;;;3.32;79.61;99837.13;5110410;28;20027;-77
2021/11/12 02:07:36;;;;;;;0.00;0.00;;;;;;;3.28;79.70;99841.19;5109884;28;20024;-77
2021/11/12 02:10:23;;;;;;;0.08;0.08;;;;;;;3.28;79.43;99841.19;5110348;28;20035;-75
2021/11/12 02:15:21;;;;;;;0.00;0.00;;;;;;;3.20;79.46;99828.22;5111207;28;20437;-76
2021/11/12 02:17:54;;;;;;;0.00;0.00;;;;;;;3.15;79.41;99826.19;5109867;28;20031;-75
2021/11/12 02:20:26;;;;;;;0.00;0.00;;;;;;;3.13;79.29;99822.16;5110401;28;20031;-76
2021/11/12 02:22:57;;;;;;;0.00;0.00;;;;;;;3.12;79.09;99815.22;5109683;28;20039;-84
2021/11/12 02:25:29;;;;;;;0.00;0.00;;;;;;;2.98;79.41;99798.59;5109665;28;20038;-78
2021/11/12 02:28:02;;;;;;;0.00;0.00;;;;;;;3.08;79.08;99824.59;5089443;28;20032;-75
2021/11/12 02:30:31;;;;;;;0.00;0.00;;;;;;;3.01;79.19;99827.25;5109684;28;20039;-74
2021/11/12 02:33:07;;;;;;;0.00;0.00;;;;;;;3.01;79.07;99830.69;5111315;28;20111;-75
2021/11/12 02:35:35;;;;;;;0.00;0.00;;;;;;;2.97;78.96;99824.22;5111258;28;20036;-76
2021/11/12 02:38:03;;;;;;;0.00;0.00;;;;;;;2.95;78.87;99820.94;5109033;28;20023;-77
2021/11/12 02:40:33;;;;;;;0.00;0.00;;;;;;;2.96;78.88;99819.94;5109598;28;20035;-78
2021/11/12 02:42:59;;;;;;;0.00;0.00;;;;;;;2.89;79.40;99811.22;5089530;28;20032;-78
2021/11/12 02:45:24;;;;;;;0.65;0.65;;;;;;;2.87;79.03;99816.69;5103563;28;20097;-77
2021/11/12 02:47:50;;;;;;;0.00;0.00;;;;;;;2.79;79.27;99800.28;5110121;28;20111;-79
2021/11/12 02:50:18;;;;;;;0.00;0.00;;;;;;;2.75;79.10;99804.31;5109620;28;20639;-73
2021/11/12 02:52:45;;;;;;;0.00;0.00;;;;;;;2.72;79.10;99797.63;5111335;28;20084;-72
2021/11/12 02:55:11;;;;;;;0.00;0.00;;;;;;;2.83;79.23;99814.69;5110733;28;20115;-73
2021/11/12 02:57:36;;;;;;;0.25;0.25;;;;;;;2.77;79.33;99802.28;5111194;28;20059;-73
2021/11/12 03:00:07;;;;;;;0.00;0.00;;;;;;;2.74;79.45;99800.06;5109676;28;20474;-75
2021/11/12 03:02:34;;;;;;;0.00;0.00;;;;;;;2.73;79.02;99801.88;5109566;28;20020;-74
2021/11/12 03:05:00;;;;;;;0.00;0.00;;;;;;;2.70;79.54;99800.47;5109252;28;20118;-74
2021/11/12 03:07:25;;;;;;;0.00;0.00;;;;;;;2.69;79.59;99792.75;5110128;28;20548;-75
2021/11/12 03:09:51;;;;;;;0.15;0.15;;;;;;;2.75;79.23;99805.16;5111594;28;20027;-81
2021/11/12 03:12:18;;;;;;;0.00;0.00;;;;;;;2.67;79.37;99790.34;5113669;28;20451;-78
2021/11/12 03:14:44;;;;;;;0.00;0.00;;;;;;;2.71;80.00;99799.47;5113582;28;20034;-75
2021/11/12 03:17:09;;;;;;;0.00;0.00;;;;;;;2.66;79.54;99791.34;5113117;28;20032;-73
2021/11/12 03:19:35;;;;;;;0.00;0.00;;;;;;;2.70;80.18;99791.75;5113038;28;20024;-78
2021/11/12 03:22:07;;;;;;;0.00;0.00;;;;;;;2.68;80.06;99791.13;5112890;28;20035;-81
2021/11/12 03:24:44;;;;;;;0.00;0.00;;;;;;;2.71;80.23;99796.81;5113442;28;20031;-82
2021/11/12 04:02:18;;;;;;;0.00;0.00;;;;;;;2.52;80.36;99753.56;5114161;28;20031;-78
2021/11/12 04:18:16;;;;;;;0.05;0.05;;;;;;;2.38;80.92;99744.03;5113555;28;20120;-76
2021/11/12 04:20:51;;;;;;;0.00;0.00;;;;;;;2.36;81.05;99744.25;5111388;28;20027;-79
2021/11/12 05:44:28;;;;;;;0.00;0.00;;;;;;;3.10;80.46;99756.47;5111316;28;20030;-72
2021/11/12 05:57:14;;;;;;;0.00;0.00;;;;;;;3.75;77.92;99759.00;5111610;28;20113;-73
2021/11/12 05:59:39;;;;;;;0.00;0.00;;;;;;;3.87;77.93;99761.78;5112100;28;20389;-74
2021/11/12 06:02:05;;;;;;;0.00;0.00;;;;;;;3.96;77.27;99760.50;5110221;28;20031;-73
2021/11/12 06:04:32;;;;;;;0.00;0.00;;;;;;;4.05;77.69;99758.38;5110206;28;20028;-74
2021/11/12 06:06:57;;;;;;;0.00;0.00;;;;;;;4.18;76.52;99759.34;5110139;28;20034;-73
2021/11/12 06:09:23;;;;;;;0.10;0.10;;;;;;;4.30;76.55;99761.03;5111212;28;20429;-73
2021/11/12 06:11:53;;;;;;;0.00;0.00;;;;;;;4.41;76.14;99762.19;5109641;28;20032;-73
2021/11/12 06:14:18;;;;;;;0.00;0.00;;;;;;;4.50;75.74;99754.75;5110055;28;20043;-74
2021/11/12 06:16:44;;;;;;;0.38;0.38;;;;;;;4.60;75.03;99755.09;5111472;28;20035;-73
2021/11/12 06:19:09;;;;;;;0.00;0.00;;;;;;;4.65;74.21;99757.06;5111293;28;20035;-74
2021/11/12 06:21:35;;;;;;;0.00;0.00;;;;;;;4.75;74.85;99759.22;5110019;28;20036;-74
2021/11/12 06:24:01;;;;;;;0.00;0.00;;;;;;;4.84;74.30;99762.41;5109735;28;20019;-75
2021/11/12 06:26:27;;;;;;;0.00;0.00;;;;;;;4.93;74.14;99758.41;5111227;28;20520;-73
2021/11/12 06:28:53;;;;;;;0.08;0.08;;;;;;;5.02;74.22;99757.09;5109888;28;20127;-74
2021/11/12 06:31:20;;;;;;;0.10;0.10;;;;;;;5.02;73.77;99745.69;5111377;28;20019;-74
2021/11/12 06:33:49;;;;;;;0.00;0.00;;;;;;;5.20;73.96;99760.75;5109992;28;20024;-74
2021/11/12 06:36:16;;;;;;;0.00;0.00;;;;;;;5.26;73.84;99760.69;5109743;28;20520;-74
2021/11/12 06:38:42;;;;;;;0.00;0.00;;;;;;;5.33;73.27;99760.59;5111027;28;20391;-73
2021/11/12 06:41:12;;;;;;;0.00;0.00;;;;;;;5.45;73.77;99761.44;5109797;28;20061;-74
2021/11/12 06:43:46;;;;;;;0.00;0.00;;;;;;;5.58;72.70;99754.38;5111476;28;20023;-73
2021/11/12 06:51:41;;;;;;;0.10;0.10;;;;;;;5.90;71.97;99751.44;5114967;28;20034;-74
2021/11/12 06:54:06;;;;;;;0.00;0.00;;;;;;;6.00;72.87;99745.63;5113565;28;20406;-74
2021/11/12 06:56:32;;;;;;;0.03;0.03;;;;;;;6.15;72.51;99750.47;5115177;28;20469;-74
2021/11/12 06:58:57;;;;;;;0.20;0.20;;;;;;;6.27;72.54;99735.34;5113625;28;20024;-75
2021/11/12 07:01:25;;;;;;;0.00;0.00;;;;;;;6.40;71.87;99744.97;5113817;28;20031;-74
2021/11/12 07:03:50;;;;;;;0.00;0.00;;;;;;;6.50;71.79;99741.72;5114894;27;20023;-74
2021/11/12 07:06:16;;;;;;;0.00;0.00;;;;;;;6.65;71.61;99739.41;5114784;28;20031;-74
2021/11/12 07:08:43;;;;;;;0.00;0.00;;;;;;;6.78;70.60;99733.03;5113618;28;20656;-73
2021/11/12 07:11:09;;;;;;;0.10;0.10;;;;;;;6.92;70.52;99732.78;5112998;28;20024;-75
2021/11/12 07:13:35;;;;;;;0.00;0.00;;;;;;;7.04;70.10;99737.03;5114597;28;20081;-75
2021/11/12 07:16:00;;;;;;;0.20;0.20;;;;;;;7.18;69.84;99742.88;5114560;28;20036;-75
2021/11/12 07:18:28;;;;;;;0.00;0.00;;;;;;;7.35;69.92;99742.94;5113457;28;20034;-75
2021/11/12 07:20:55;;;;;;;0.00;0.00;;;;;;;7.42;69.13;99734.81;5113362;28;20032;-74
2021/11/12 07:23:23;;;;;;;0.00;0.00;;;;;;;7.46;68.50;99722.66;5113173;28;20023;-74
2021/11/12 07:25:50;;;;;;;0.20;0.20;;;;;;;7.66;68.03;99738.16;5114768;28;20080;-75
2021/11/12 07:28:16;;;;;;;0.00;0.00;;;;;;;7.65;68.04;99719.78;5113067;28;20051;-75
2021/11/12 07:30:44;;;;;;;0.00;0.00;;;;;;;7.85;67.12;99729.97;5114460;28;20059;-75
2021/11/12 07:33:12;;;;;;;0.05;0.05;;;;;;;7.88;66.97;99718.84;5114257;27;20038;-75
2021/11/12 07:35:50;;;;;;;0.00;0.00;;;;;;;8.02;65.38;99735.31;5114874;28;20574;-75
2021/11/12 07:38:27;;;;;;;0.00;0.00;;;;;;;8.13;64.86;99729.09;5114235;28;20596;-75
2021/11/12 07:48:37;;;;;;;0.00;0.00;;;;;;;8.32;63.24;99713.66;5114083;28;20039;-75
2021/11/12 07:51:02;;;;;;;0.00;0.00;;;;;;;8.39;62.79;99726.03;5113869;27;20036;-73
2021/11/12 07:53:28;;;;;;;0.00;0.00;;;;;;;8.35;63.53;99715.03;5114088;28;20398;-75
2021/11/12 07:55:53;;;;;;;0.00;0.00;;;;;;;8.42;64.26;99720.19;5111354;28;20059;-74
2021/11/12 07:58:20;;;;;;;0.00;0.00;;;;;;;8.37;63.93;99715.56;5112445;28;20023;-74
2021/11/12 08:00:47;;;;;;;0.00;0.00;;;;;;;8.45;63.62;99723.16;5112768;28;20024;-75
2021/11/12 08:03:13;;;;;;;0.13;0.13;;;;;;;8.38;63.42;99719.88;5112334;28;20118;-75
2021/11/12 08:05:41;;;;;;;0.63;0.63;;;;;;;8.38;62.88;99729.72;5112381;28;20067;-75
2021/11/12 08:08:09;;;;;;;0.10;0.10;;;;;;;8.32;62.94;99726.16;5113940;28;20023;-74
2021/11/12 08:10:44;;;;;;;;;;;;;;;8.30;63.39;99731.75;5114170;28;20024;-74
2021/11/12 08:13:13;;;;;;;0.35;0.35;;;;;;;8.26;63.76;99735.13;5112016;28;20390;-74
2021/11/12 08:18:20;;;;;;;0.95;0.68;;;;;;;8.19;63.71;99724.66;5113291;27;20463;-74
2021/11/12 08:21:05;;;;;;;0.70;0.55;;;;;;;8.20;64.18;99728.91;5113610;28;20528;-74
2021/11/12 08:26:07;;;;;;;0.55;0.40;;;;;;;8.17;63.75;99722.22;5113458;28;20368;-75
2021/11/12 08:33:53;;;;;;;0.10;0.10;;;;;;;8.25;64.34;99715.69;5113184;28;20478;-74
2021/11/12 08:41:55;;;;;;;1.45;1.45;;;;;;;8.33;62.39;99722.47;5112875;28;20425;-74
2021/11/12 08:44:37;;;;;;;0.38;0.38;;;;;;;8.32;63.92;99707.53;5111131;28;20118;-75
2021/11/12 08:47:27;;;;;;;0.70;0.70;;;;;;;8.34;63.56;99714.22;5111498;28;20470;-75
2021/11/12 08:49:53;;;;;;;0.00;0.00;;;;;;;8.34;63.91;99705.44;5111508;28;20080;-75
2021/11/12 08:52:19;;;;;;;0.20;0.20;;;;;;;8.38;64.45;99706.53;5112195;28;20072;-75
2021/11/12 08:54:47;;;;;;;2.03;1.45;;;;;;;8.44;63.49;99712.75;5111487;28;20027;-74
2021/11/12 08:57:15;;;;;;;0.38;0.38;;;;;;;8.45;64.05;99706.38;5111164;28;20024;-74
2021/11/12 08:59:46;;;;;;;0.00;0.00;;;;;;;8.45;64.59;99699.19;5111437;28;20063;-74
2021/11/12 09:02:15;;;;;;;0.00;0.00;;;;;;;8.43;64.36;99685.28;5112098;28;20088;-74
2021/11/12 09:04:42;;;;;;;2.45;1.75;;;;;;;8.61;64.15;99712.75;5112489;28;20039;-74
2021/11/12 09:07:09;;;;;;;0.20;0.20;;;;;;;8.63;64.93;99706.13;5110555;28;20079;-74
2021/11/12 09:09:36;;;;;;;0.90;0.65;;;;;;;8.55;64.15;99682.53;5111254;28;20043;-75
2021/11/12 09:31:27;;;;;;;0.22;0.22;;;;;;;8.98;65.49;99674.78;5111569;28;20279;-74
2021/11/12 09:33:53;;;;;;;0.05;0.05;;;;;;;8.96;65.30;99679.59;5111809;28;20050;-76
2021/11/12 09:36:18;;;;;;;0.00;0.00;;;;;;;9.05;65.68;99671.94;5110510;28;20023;-75
2021/11/12 09:38:44;;;;;;;0.00;0.00;;;;;;;9.00;65.41;99656.69;5110469;28;20028;-75
2021/11/12 09:41:10;;;;;;;0.05;0.05;;;;;;;9.14;66.02;99673.09;5110207;28;20034;-74
2021/11/12 09:43:37;;;;;;;0.25;0.25;;;;;;;9.21;65.97;99667.56;5110390;28;20128;-75
2021/11/12 09:46:05;;;;;;;0.38;0.38;;;;;;;9.29;65.84;99659.91;5110243;28;20052;-75
2021/11/12 09:48:31;;;;;;;0.00;0.00;;;;;;;9.29;66.01;99649.25;5110511;28;20406;-75
2021/11/12 09:50:57;;;;;;;0.10;0.10;;;;;;;9.44;65.58;99655.78;5111297;28;20031;-74
2021/11/12 09:53:23;;;;;;;0.00;0.00;;;;;;;9.49;65.83;99647.03;5111597;28;20565;-76
2021/11/12 09:55:53;;;;;;;0.05;0.05;;;;;;;9.62;66.09;99651.94;5110135;28;20035;-75
2021/11/12 09:58:19;;;;;;;0.60;0.60;;;;;;;9.58;65.03;99638.28;5110432;28;20031;-74
2021/11/12 10:00:44;;;;;;;0.20;0.20;;;;;;;9.63;65.07;99637.53;5110173;28;20028;-74
2021/11/12 10:03:10;;;;;;;4.03;0.75;;;;;;;9.73;65.24;99636.81;5110338;28;20035;-74
2021/11/12 10:05:46;;;;;;;0.10;0.10;;;;;;;9.84;64.85;99638.47;5110233;28;20031;-76
2021/11/12 10:08:30;;;;;;;1.20;0.63;;;;;;;9.88;64.53;99630.75;5110298;28;20027;-75
2021/11/12 10:11:02;;;;;;;0.10;0.10;;;;;;;9.86;65.02;99625.69;5111264;28;20035;-74
2021/11/12 10:13:35;;;;;;;0.10;0.10;;;;;;;9.93;63.96;99628.13;5110115;28;20034;-75
2021/11/12 10:19:18;;;;;;;0.00;0.00;;;;;;;9.88;63.64;99623.53;5110824;28;20031;-77
2021/11/12 10:21:53;;;;;;;0.68;0.68;;;;;;;9.87;64.24;99623.81;5111042;28;20097;-75
2021/11/12 10:24:40;;;;;;;0.00;0.00;;;;;;;9.87;64.41;99602.44;5110055;28;20046;-75
2021/11/12 10:27:16;;;;;;;0.10;0.10;;;;;;;10.01;64.57;99603.59;5109876;28;20118;-75
2021/11/12 10:29:50;;;;;;;0.00;0.00;;;;;;;10.06;64.00;99597.47;5110943;28;20028;-74
2021/11/12 10:32:25;;;;;;;0.00;0.00;;;;;;;10.19;63.78;99596.19;5109850;28;20023;-75
2021/11/12 10:34:56;;;;;;;0.00;0.00;;;;;;;10.22;62.61;99609.84;5109737;28;20027;-74
2021/11/12 10:37:25;;;;;;;0.00;0.00;;;;;;;10.20;62.58;99592.47;5111342;28;20482;-74
2021/11/12 10:40:01;;;;;;;;;;;;;;;10.27;63.08;99587.69;5110178;28;20023;-74
2021/11/12 10:42:29;;;;;;;0.20;0.20;;;;;;;10.32;62.47;99576.22;5111115;28;19912;-74
2021/11/12 10:44:59;;;;;;;0.08;0.08;;;;;;;10.32;62.45;99571.66;5109038;28;20044;-74
2021/11/12 10:47:28;;;;;;;0.28;0.28;;;;;;;10.41;62.48;99570.13;5111174;28;20042;-74
2021/11/12 10:49:59;;;;;;;0.00;0.00;;;;;;;10.49;61.19;99568.03;5109631;28;20096;-73
2021/11/12 10:52:27;;;;;;;0.00;0.00;;;;;;;10.50;61.47;99572.31;5109683;28;20031;-74
2021/11/12 10:54:58;;;;;;;0.00;0.00;;;;;;;10.52;61.17;99570.16;5110716;28;20028;-74
2021/11/12 10:57:34;;;;;;;0.10;0.10;;;;;;;10.53;61.55;99563.75;5109759;28;20042;-74
2021/11/12 11:00:04;;;;;;;0.00;0.00;;;;;;;10.57;61.41;99562.97;5109582;28;20563;-75
2021/11/12 11:02:36;;;;;;;0.05;0.05;;;;;;;10.54;60.77;99563.47;5109657;28;20034;-76
2021/11/12 11:05:08;;;;;;;0.10;0.10;;;;;;;10.60;61.44;99556.28;5109370;28;20027;-75
2021/11/12 11:07:35;;;;;;;0.88;0.88;;;;;;;10.56;62.22;99549.88;5109564;28;20031;-74
2021/11/12 11:10:06;;;;;;;0.10;0.10;;;;;;;10.66;61.83;99555.22;5111061;28;20102;-74
2021/11/12 11:12:43;;;;;;;0.10;0.10;;;;;;;10.71;62.36;99551.78;5109638;28;20043;-75
2021/11/12 11:15:15;;;;;;;0.22;0.22;;;;;;;10.80;61.88;99554.72;5109452;28;20023;-76
2021/11/12 11:17:46;;;;;;;0.00;0.00;;;;;;;10.76;61.36;99542.97;5109572;28;20028;-75
2021/11/12 11:20:17;;;;;;;0.05;0.05;;;;;;;10.81;61.70;99537.63;5109519;28;20032;-76
2021/11/12 11:22:59;;;;;;;0.10;0.10;;;;;;;10.82;61.83;99553.38;5109628;28;20066;-75
2021/11/12 11:25:26;;;;;;;0.20;0.20;;;;;;;10.72;61.60;99545.34;5109488;28;20543;-75
2021/11/12 11:27:54;;;;;;;0.00;0.00;;;;;;;10.66;62.00;99527.69;5110461;28;20038;-75
2021/11/12 11:30:19;;;;;;;0.28;0.28;;;;;;;10.76;62.01;99537.59;5110565;28;20068;-74
2021/11/12 11:32:46;;;;;;;0.43;0.43;;;;;;;10.80;62.66;99525.28;5114466;28;20031;-75
2021/11/12 11:35:14;;;;;;;0.05;0.05;;;;;;;10.79;62.23;99519.16;5114798;28;20091;-75
2021/11/12 11:37:40;;;;;;;0.05;0.05;;;;;;;10.92;62.32;99527.72;5114441;28;20103;-75
2021/11/12 11:40:09;;;;;;;0.05;0.05;;;;;;;10.83;61.91;99512.19;5114259;28;20114;-75
2021/11/12 11:42:37;;;;;;;0.10;0.10;;;;;;;10.83;62.23;99511.41;5114242;28;20110;-75
2021/11/12 11:45:03;;;;;;;0.57;0.57;;;;;;;10.95;61.94;99525.31;5113731;28;20043;-74
2021/11/12 11:47:30;;;;;;;0.25;0.20;;;;;;;10.95;60.92;99521.81;5112872;28;20035;-75
2021/11/12 11:49:56;;;;;;;0.03;0.03;;;;;;;10.95;61.02;99519.16;5113891;28;20031;-75
2021/11/12 11:52:26;;;;;;;0.10;0.10;;;;;;;11.00;60.45;99521.84;5112711;28;20024;-75
2021/11/12 11:54:53;;;;;;;0.20;0.20;;;;;;;11.07;59.99;99526.94;5113716;28;20038;-75
2021/11/12 11:57:22;;;;;;;0.10;0.10;;;;;;;10.98;59.93;99510.59;5112682;28;20023;-74
2021/11/12 11:59:49;;;;;;;0.20;0.20;;;;;;;11.12;59.75;99518.91;5112366;28;20032;-74
2021/11/12 12:02:20;;;;;;;0.03;0.03;;;;;;;11.21;59.97;99522.66;5112579;28;20028;-74
2021/11/12 12:04:51;;;;;;;1.00;1.00;;;;;;;11.25;59.87;99521.03;5112381;28;20122;-74
2021/11/12 12:07:19;;;;;;;0.22;0.22;;;;;;;11.24;60.81;99505.25;5113742;28;20027;-74
2021/11/12 12:09:51;;;;;;;0.13;0.13;;;;;;;11.34;61.39;99511.41;5112033;28;20110;-74
2021/11/12 12:12:31;;;;;;;0.20;0.20;;;;;;;11.40;60.71;99514.06;5113655;28;20497;-73
2021/11/12 12:15:03;;;;;;;0.25;0.25;;;;;;;11.39;60.28;99507.91;5112300;28;20035;-74
2021/11/12 12:17:29;;;;;;;0.55;0.55;;;;;;;11.38;60.19;99506.31;5113601;28;20050;-75
2021/11/12 12:20:05;;;;;;;1.98;1.25;;;;;;;11.42;60.13;99506.56;5111767;28;20036;-75
2021/11/12 13:22:32;;;;;;;0.40;0.40;;;;;;;11.84;60.28;99497.38;5112331;28;20506;-75
2021/11/12 13:24:36;;;;;;;0.00;0.00;;;;;;;11.84;60.60;99495.50;5108747;28;20032;-76
2021/11/12 13:27:05;;;;;;;0.85;0.77;;;;;;;11.88;60.49;99487.72;5112352;28;20019;-76
2021/11/12 13:29:31;;;;;;;;;;;;;;;11.94;60.84;99489.28;5112495;28;20053;-76
2021/11/12 13:32:03;;;;;;;0.00;0.00;;;;;;;11.95;60.23;99493.59;5110386;28;19912;-75
2021/11/12 13:34:30;;;;;;;0.00;0.00;;;;;;;11.85;60.09;99475.66;5112148;28;20049;-75
2021/11/12 13:36:56;;;;;;;0.03;0.03;;;;;;;11.92;60.10;99479.94;5111750;28;20051;-75
2021/11/12 13:39:22;;;;;;;0.00;0.00;;;;;;;11.90;59.95;99482.06;5112163;27;20028;-74
2021/11/12 13:41:51;;;;;;;0.00;0.00;;;;;;;11.88;60.56;99487.72;5111904;28;20681;-74
2021/11/12 13:44:19;;;;;;;0.10;0.10;;;;;;;11.90;59.54;99490.09;5110109;28;20024;-75
2021/11/12 13:46:57;;;;;;;0.00;0.00;;;;;;;11.86;59.40;99487.16;5110876;28;20024;-75
2021/11/12 13:49:41;;;;;;;0.10;0.10;;;;;;;11.92;59.39;99496.78;5111716;28;20027;-75
2021/11/12 13:52:20;;;;;;;0.08;0.08;;;;;;;11.91;59.51;99495.19;5111793;28;20035;-75
2021/11/12 13:54:49;;;;;;;0.43;0.43;;;;;;;11.89;60.16;99502.72;5111792;28;20499;-75
2021/11/12 13:57:18;;;;;;;0.00;0.00;;;;;;;11.89;59.52;99489.31;5111525;28;20479;-74
2021/11/12 14:00:11;;;;;;;0.00;0.00;;;;;;;11.93;59.98;99492.25;5110358;28;20028;-75
2021/11/12 14:03:07;;;;;;;0.05;0.05;;;;;;;11.93;59.85;99495.72;5107715;28;20126;-74
2021/11/12 14:05:55;;;;;;;0.22;0.22;;;;;;;11.92;60.19;99501.38;5111546;28;20102;-75
2021/11/12 14:08:20;;;;;;;0.00;0.00;;;;;;;11.87;60.08;99499.50;5096885;28;20196;-74
2021/11/12 14:10:49;;;;;;;0.10;0.10;;;;;;;11.87;60.24;99507.53;5110488;28;20513;-75
2021/11/12 14:13:16;;;;;;;;;;;;;;;11.87;60.83;99498.72;5111929;28;20043;-76
2021/11/12 14:16:04;;;;;;;0.20;0.20;;;;;;;11.76;60.70;99489.91;5110066;28;19907;-75
2021/11/12 14:21:17;;;;;;;0.10;0.10;;;;;;;11.81;60.92;99495.22;5111144;28;19907;-74
2021/11/12 14:23:56;;;;;;;0.00;0.00;;;;;;;11.71;60.38;99489.91;5109693;28;20066;-73
2021/11/12 14:29:12;;;;;;;0.25;0.25;;;;;;;11.70;61.50;99502.50;5111024;28;20370;-74
2021/11/12 14:34:44;;;;;;;0.00;0.00;;;;;;;11.61;61.96;99494.22;5111198;28;20109;-75
2021/11/12 14:37:27;;;;;;;0.00;0.00;;;;;;;11.60;61.90;99491.81;5111136;28;20020;-75
2021/11/12 14:40:00;;;;;;;0.00;0.00;;;;;;;11.59;61.57;99487.53;5111106;28;20038;-74
2021/11/12 14:47:55;;;;;;;0.00;0.00;;;;;;;11.55;61.82;99492.63;5111190;28;20035;-76
2021/11/12 14:53:17;;;;;;;0.00;0.00;;;;;;;11.51;62.05;99489.69;5110940;28;20024;-76
2021/11/12 14:55:44;;;;;;;0.55;0.55;;;;;;;11.48;62.33;99494.78;5111197;28;20046;-75
2021/11/12 14:58:14;;;;;;;0.00;0.00;;;;;;;11.43;62.29;99492.91;5109445;28;20048;-73
2021/11/12 15:00:39;;;;;;;0.00;0.00;;;;;;;11.44;62.80;99497.19;5111049;28;20028;-75
2021/11/12 15:03:06;;;;;;;0.00;0.00;;;;;;;11.38;62.56;99491.03;5109389;28;20548;-74
2021/11/12 15:05:32;;;;;;;0.00;0.00;;;;;;;11.39;62.35;99507.91;5112086;28;20130;-75
2021/11/12 15:08:21;;;;;;;0.00;0.00;;;;;;;11.39;62.66;99502.56;5114607;28;20460;-75
2021/11/12 15:10:45;;;;;;;0.00;0.00;;;;;;;11.33;62.93;99496.41;5114360;28;20054;-74
2021/11/12 15:13:11;;;;;;;0.00;0.00;;;;;;;11.32;62.80;99507.38;5113241;28;20031;-74
2021/11/12 15:15:36;;;;;;;0.00;0.00;;;;;;;11.25;62.86;99496.94;5113363;28;20039;-74
2021/11/12 15:18:04;;;;;;;0.00;0.00;;;;;;;11.25;63.20;99517.56;5113172;28;20024;-74
2021/11/12 15:20:31;;;;;;;0.17;0.17;;;;;;;11.17;62.82;99508.22;5114624;28;20686;-76
2021/11/12 15:31:46;;;;;;;0.00;0.00;;;;;;;11.12;64.29;99522.38;5114625;28;20106;-74
2021/11/12 15:33:51;;;;;;;0.00;0.00;;;;;;;11.10;64.11;99519.16;5111210;28;20139;-74
2021/11/12 15:36:17;;;;;;;0.00;0.00;;;;;;;10.99;63.81;99515.69;5112780;28;20035;-74
2021/11/12 15:38:52;;;;;;;0.00;0.00;;;;;;;10.99;64.54;99517.56;5114242;28;20034;-74
2021/11/12 15:46:31;;;;;;;0.00;0.00;;;;;;;10.96;64.17;99526.94;5113672;28;20043;-76
2021/11/12 15:48:56;;;;;;;;;;;;;;;10.98;64.39;99532.00;5110486;28;20411;-75
2021/11/12 15:52:11;;;;;;;0.00;0.00;;;;;;;10.92;64.25;99531.19;5100260;28;19919;-76
2021/11/12 16:02:53;;;;;;;0.00;0.00;;;;;;;10.73;64.71;99528.25;5088039;28;20046;-76
2021/11/12 16:15:44;;;;;;;0.00;0.00;;;;;;;10.56;65.15;99544.53;5113238;28;20406;-76
2021/11/12 16:18:31;;;;;;;0.00;0.00;;;;;;;10.53;65.11;99542.34;5111150;28;20020;-76
2021/11/12 16:25:50;;;;;;;0.00;0.00;;;;;;;10.36;65.39;99554.09;5113393;28;20035;-76
2021/11/12 16:28:22;;;;;;;0.00;0.00;;;;;;;10.28;65.93;99554.56;5112052;28;20022;-75
2021/11/12 16:31:00;;;;;;;0.00;0.00;;;;;;;10.23;65.84;99562.56;5113425;28;20031;-75
2021/11/12 16:33:27;;;;;;;0.00;0.00;;;;;;;10.13;65.94;99563.31;5111995;28;20058;-75
2021/11/12 16:35:56;;;;;;;0.28;0.28;;;;;;;10.03;66.07;99568.59;5111465;28;20040;-74
2021/11/12 16:38:25;;;;;;;0.32;0.32;;;;;;;9.87;65.92;99551.69;5112347;28;20023;-75
2021/11/12 16:40:58;;;;;;;0.00;0.00;;;;;;;9.82;66.57;99568.47;5097616;28;20102;-74
2021/11/12 17:06:24;;;;;;;0.00;0.00;;;;;;;8.97;67.85;99564.63;5112608;28;20153;-73
2021/11/12 17:11:46;;;;;;;0.03;0.03;;;;;;;8.85;68.73;99569.31;5111835;28;20039;-75
2021/11/12 17:47:00;;;;;;;0.63;0.63;;;;;;;7.91;70.20;99585.19;5113916;28;20046;-92
2021/11/12 18:05:24;;;;;;;0.00;0.00;;;;;;;7.53;71.24;99565.44;5111366;28;20062;-84
2021/11/12 21:47:04;;;;;;;0.00;0.00;;;;;;;4.60;75.60;99582.06;5111459;28;20513;-75
2021/11/12 21:49:29;;;;;;;0.47;0.47;;;;;;;4.62;75.46;99585.31;5110089;28;20073;-75
2021/11/12 21:51:58;;;;;;;0.85;0.70;;;;;;;4.58;75.25;99587.59;5110592;28;20031;-75
2021/11/12 21:54:23;;;;;;;0.00;0.00;;;;;;;4.53;75.55;99583.97;5110003;28;20027;-78
2021/11/12 21:56:48;;;;;;;0.00;0.00;;;;;;;4.54;75.83;99588.25;5110021;28;20422;-77
2021/11/12 21:59:14;;;;;;;0.00;0.00;;;;;;;4.54;75.54;99590.91;5110304;28;20027;-78
2021/11/12 22:01:41;;;;;;;0.55;0.55;;;;;;;4.52;75.94;99588.47;5111129;28;20020;-84
2021/11/12 22:04:07;;;;;;;0.00;0.00;;;;;;;4.48;75.76;99587.31;5110788;28;20043;-85
2021/11/12 22:06:34;;;;;;;0.00;0.00;;;;;;;4.41;75.74;99574.16;5111607;28;20031;-81
2021/11/12 22:09:00;;;;;;;0.00;0.00;;;;;;;4.47;75.75;99583.06;5120948;28;20034;-75
2021/11/12 22:11:26;;;;;;;0.00;0.00;;;;;;;4.40;75.74;99577.81;5111597;28;20038;-75
2021/11/12 22:13:52;;;;;;;0.00;0.00;;;;;;;4.38;75.97;99574.59;5110095;28;20024;-79
2021/11/12 22:16:19;;;;;;;0.70;0.70;;;;;;;4.29;75.94;99568.78;5109762;28;20027;-71
2021/11/12 22:18:45;;;;;;;0.10;0.10;;;;;;;4.24;76.17;99554.59;5111298;28;20030;-74
2021/11/12 22:21:12;;;;;;;0.10;0.10;;;;;;;4.18;76.22;99547.53;5110821;28;20555;-75
2021/11/12 22:23:38;;;;;;;0.00;0.00;;;;;;;4.24;76.66;99563.34;5109528;28;20554;-75